sensor_id;sensor_type;location;lat;lon;timestamp;temperature;humidity
16384;DHT22;8301;51.440;6.610;2022-10-16T00:01:48;12.80;99.90
16384;DHT22;8301;51.440;6.610;2022-10-16T00:04:15;12.80;99.90
16384;DHT22;8301;51.440;6.610;2022-10-16T00:06:41;12.80;99.90
16384;DHT22;8301;51.440;6.610;2022-10-16T00:09:08;12.80;99.90
16384;DHT22;8301;51.440;6.610;2022-10-16T00:11:36;12.70;99.90
16384;DHT22;8301;51.440;6.610;2022-10-16T00:14:05;12.80;99.90
16384;DHT22;8301;51.440;6.610;2022-10-16T00:16:33;12.70;99.90
16384;DHT22;8301;51.440;6.610;2022-10-16T00:19:00;12.70;99.90
16384;DHT22;8301;51.440;6.610;2022-10-16T00:21:28;12.70;99.90
16384;DHT22;8301;51.440;6.610;2022-10-16T00:23:56;12.70;99.90
16384;DHT22;8301;51.440;6.610;2022-10-16T00:26:25;12.60;99.90
16384;DHT22;8301;51.440;6.610;2022-10-16T00:28:53;12.70;99.90
16384;DHT22;8301;51.440;6.610;2022-10-16T00:31:20;12.70;99.90
16384;DHT22;8301;51.440;6.610;2022-10-16T00:33:47;12.70;99.90
16384;DHT22;8301;51.440;6.610;2022-10-16T00:36:16;12.70;99.90
16384;DHT22;8301;51.440;6.610;2022-10-16T00:38:43;12.70;99.90
16384;DHT22;8301;51.440;6.610;2022-10-16T00:41:14;12.70;99.90
16384;DHT22;8301;51.440;6.610;2022-10-16T00:43:43;12.70;99.90
16384;DHT22;8301;51.440;6.610;2022-10-16T00:46:11;12.70;99.90
16384;DHT22;8301;51.440;6.610;2022-10-16T00:48:38;12.70;99.90
16384;DHT22;8301;51.440;6.610;2022-10-16T00:51:06;12.70;99.90
16384;DHT22;8301;51.440;6.610;2022-10-16T00:53:33;12.80;99.90
16384;DHT22;8301;51.440;6.610;2022-10-16T00:56:01;12.80;99.90
16384;DHT22;8301;51.440;6.610;2022-10-16T00:58:28;12.70;99.90
16384;DHT22;8301;51.440;6.610;2022-10-16T01:00:55;12.70;99.90
16384;DHT22;8301;51.440;6.610;2022-10-16T01:03:23;12.70;99.90
16384;DHT22;8301;51.440;6.610;2022-10-16T01:05:51;12.70;99.90
16384;DHT22;8301;51.440;6.610;2022-10-16T01:08:25;12.70;99.90
16384;DHT22;8301;51.440;6.610;2022-10-16T01:10:57;12.70;99.90
16384;DHT22;8301;51.440;6.610;2022-10-16T01:13:27;12.70;99.90
16384;DHT22;8301;51.440;6.610;2022-10-16T01:18:30;12.70;99.90
16384;DHT22;8301;51.440;6.610;2022-10-16T01:20:59;12.60;99.90
16384;DHT22;8301;51.440;6.610;2022-10-16T01:31:29;12.70;99.90
16384;DHT22;8301;51.440;6.610;2022-10-16T01:34:00;12.60;99.90
16384;DHT22;8301;51.440;6.610;2022-10-16T01:36:30;12.60;99.90
16384;DHT22;8301;51.440;6.610;2022-10-16T01:38:56;12.60;99.90
16384;DHT22;8301;51.440;6.610;2022-10-16T01:41:34;12.70;99.90
16384;DHT22;8301;51.440;6.610;2022-10-16T01:43:57;12.60;99.90
16384;DHT22;8301;51.440;6.610;2022-10-16T01:46:23;12.60;99.90
16384;DHT22;8301;51.440;6.610;2022-10-16T01:48:51;12.70;99.90
16384;DHT22;8301;51.440;6.610;2022-10-16T01:51:19;12.70;99.90
16384;DHT22;8301;51.440;6.610;2022-10-16T01:53:48;12.60;99.90
16384;DHT22;8301;51.440;6.610;2022-10-16T01:56:14;12.60;99.90
16384;DHT22;8301;51.440;6.610;2022-10-16T01:58:48;12.60;99.90
16384;DHT22;8301;51.440;6.610;2022-10-16T02:01:19;12.60;99.90
16384;DHT22;8301;51.440;6.610;2022-10-16T02:03:48;12.60;99.90
16384;DHT22;8301;51.440;6.610;2022-10-16T02:06:15;12.60;99.90
16384;DHT22;8301;51.440;6.610;2022-10-16T02:08:42;12.50;99.90
16384;DHT22;8301;51.440;6.610;2022-10-16T02:11:10;12.60;99.90
16384;DHT22;8301;51.440;6.610;2022-10-16T02:13:39;12.60;99.90
16384;DHT22;8301;51.440;6.610;2022-10-16T02:16:06;12.60;99.90
16384;DHT22;8301;51.440;6.610;2022-10-16T02:18:33;12.50;99.90
16384;DHT22;8301;51.440;6.610;2022-10-16T02:23:54;12.50;99.90
16384;DHT22;8301;51.440;6.610;2022-10-16T02:26:24;12.50;99.90
16384;DHT22;8301;51.440;6.610;2022-10-16T02:28:51;12.50;99.90
16384;DHT22;8301;51.440;6.610;2022-10-16T02:31:18;12.50;99.90
16384;DHT22;8301;51.440;6.610;2022-10-16T02:33:45;12.40;99.90
16384;DHT22;8301;51.440;6.610;2022-10-16T02:36:12;12.50;99.90
16384;DHT22;8301;51.440;6.610;2022-10-16T02:38:41;12.50;99.90
16384;DHT22;8301;51.440;6.610;2022-10-16T02:41:08;12.50;99.90
16384;DHT22;8301;51.440;6.610;2022-10-16T02:43:35;12.50;99.90
16384;DHT22;8301;51.440;6.610;2022-10-16T02:46:02;12.50;99.90
16384;DHT22;8301;51.440;6.610;2022-10-16T02:48:29;12.40;99.90
16384;DHT22;8301;51.440;6.610;2022-10-16T02:50:56;12.50;99.90
16384;DHT22;8301;51.440;6.610;2022-10-16T02:53:23;12.50;99.90
16384;DHT22;8301;51.440;6.610;2022-10-16T02:55:49;12.50;99.90
16384;DHT22;8301;51.440;6.610;2022-10-16T02:58:16;12.50;99.90
16384;DHT22;8301;51.440;6.610;2022-10-16T03:00:43;12.50;99.90
16384;DHT22;8301;51.440;6.610;2022-10-16T03:03:11;12.60;99.90
16384;DHT22;8301;51.440;6.610;2022-10-16T03:05:38;12.60;99.90
16384;DHT22;8301;51.440;6.610;2022-10-16T03:08:04;12.60;99.90
16384;DHT22;8301;51.440;6.610;2022-10-16T03:10:31;12.60;99.90
16384;DHT22;8301;51.440;6.610;2022-10-16T03:12:58;12.50;99.90
16384;DHT22;8301;51.440;6.610;2022-10-16T03:15:25;12.50;99.90
16384;DHT22;8301;51.440;6.610;2022-10-16T03:17:53;12.50;99.90
16384;DHT22;8301;51.440;6.610;2022-10-16T03:20:20;12.60;99.90
16384;DHT22;8301;51.440;6.610;2022-10-16T03:22:47;12.60;99.90
16384;DHT22;8301;51.440;6.610;2022-10-16T03:25:14;12.60;99.90
16384;DHT22;8301;51.440;6.610;2022-10-16T03:27:40;12.60;99.90
16384;DHT22;8301;51.440;6.610;2022-10-16T03:30:08;12.60;99.90
16384;DHT22;8301;51.440;6.610;2022-10-16T03:32:35;12.60;99.90
16384;DHT22;8301;51.440;6.610;2022-10-16T03:35:02;12.60;99.90
16384;DHT22;8301;51.440;6.610;2022-10-16T03:37:28;12.60;99.90
16384;DHT22;8301;51.440;6.610;2022-10-16T03:39:55;12.60;99.90
16384;DHT22;8301;51.440;6.610;2022-10-16T03:42:22;12.60;99.90
16384;DHT22;8301;51.440;6.610;2022-10-16T03:44:51;12.60;99.90
16384;DHT22;8301;51.440;6.610;2022-10-16T03:47:17;12.60;99.90
16384;DHT22;8301;51.440;6.610;2022-10-16T03:49:46;12.60;99.90
16384;DHT22;8301;51.440;6.610;2022-10-16T03:52:13;12.60;99.90
16384;DHT22;8301;51.440;6.610;2022-10-16T03:54:40;12.70;99.90
16384;DHT22;8301;51.440;6.610;2022-10-16T03:57:07;12.70;99.90
16384;DHT22;8301;51.440;6.610;2022-10-16T03:59:33;12.70;99.90
16384;DHT22;8301;51.440;6.610;2022-10-16T04:02:00;12.70;99.90
16384;DHT22;8301;51.440;6.610;2022-10-16T04:04:36;12.70;99.90
16384;DHT22;8301;51.440;6.610;2022-10-16T04:07:03;12.70;99.90
16384;DHT22;8301;51.440;6.610;2022-10-16T04:09:30;12.70;99.90
16384;DHT22;8301;51.440;6.610;2022-10-16T04:11:57;12.60;99.90
16384;DHT22;8301;51.440;6.610;2022-10-16T04:14:25;12.70;99.90
16384;DHT22;8301;51.440;6.610;2022-10-16T04:16:52;12.70;99.90
16384;DHT22;8301;51.440;6.610;2022-10-16T04:19:22;12.70;99.90
16384;DHT22;8301;51.440;6.610;2022-10-16T04:21:49;12.60;99.90
16384;DHT22;8301;51.440;6.610;2022-10-16T04:24:17;12.60;99.90
16384;DHT22;8301;51.440;6.610;2022-10-16T04:26:44;12.60;99.90
16384;DHT22;8301;51.440;6.610;2022-10-16T04:29:10;12.60;99.90
16384;DHT22;8301;51.440;6.610;2022-10-16T04:31:39;12.60;99.90
16384;DHT22;8301;51.440;6.610;2022-10-16T04:34:06;12.60;99.90
16384;DHT22;8301;51.440;6.610;2022-10-16T04:36:33;12.50;99.90
16384;DHT22;8301;51.440;6.610;2022-10-16T04:39:00;12.50;99.90
16384;DHT22;8301;51.440;6.610;2022-10-16T04:41:26;12.50;99.90
16384;DHT22;8301;51.440;6.610;2022-10-16T04:43:53;12.40;99.90
16384;DHT22;8301;51.440;6.610;2022-10-16T04:46:20;12.40;99.90
16384;DHT22;8301;51.440;6.610;2022-10-16T04:48:47;12.40;99.90
16384;DHT22;8301;51.440;6.610;2022-10-16T04:51:14;12.40;99.90
16384;DHT22;8301;51.440;6.610;2022-10-16T04:53:40;12.40;99.90
16384;DHT22;8301;51.440;6.610;2022-10-16T04:56:08;12.40;99.90
16384;DHT22;8301;51.440;6.610;2022-10-16T04:58:34;12.30;99.90
16384;DHT22;8301;51.440;6.610;2022-10-16T05:01:01;12.30;99.90
16384;DHT22;8301;51.440;6.610;2022-10-16T05:03:28;12.40;99.90
16384;DHT22;8301;51.440;6.610;2022-10-16T05:05:55;12.30;99.90
16384;DHT22;8301;51.440;6.610;2022-10-16T05:08:22;12.40;99.90
16384;DHT22;8301;51.440;6.610;2022-10-16T05:10:49;12.40;99.90
16384;DHT22;8301;51.440;6.610;2022-10-16T05:13:16;12.30;99.90
16384;DHT22;8301;51.440;6.610;2022-10-16T05:15:46;12.30;99.90
16384;DHT22;8301;51.440;6.610;2022-10-16T05:18:11;12.30;99.90
16384;DHT22;8301;51.440;6.610;2022-10-16T05:20:38;12.40;99.90
16384;DHT22;8301;51.440;6.610;2022-10-16T05:23:05;12.30;99.90
16384;DHT22;8301;51.440;6.610;2022-10-16T05:25:32;12.30;99.90
16384;DHT22;8301;51.440;6.610;2022-10-16T05:27:58;12.30;99.90
16384;DHT22;8301;51.440;6.610;2022-10-16T05:30:25;12.30;99.90
16384;DHT22;8301;51.440;6.610;2022-10-16T05:32:53;12.30;99.90
16384;DHT22;8301;51.440;6.610;2022-10-16T05:35:20;12.30;99.90
16384;DHT22;8301;51.440;6.610;2022-10-16T05:37:47;12.30;99.90
16384;DHT22;8301;51.440;6.610;2022-10-16T05:40:14;12.30;99.90
16384;DHT22;8301;51.440;6.610;2022-10-16T05:42:42;12.30;99.90
16384;DHT22;8301;51.440;6.610;2022-10-16T05:45:10;12.30;99.90
16384;DHT22;8301;51.440;6.610;2022-10-16T05:47:37;12.30;99.90
16384;DHT22;8301;51.440;6.610;2022-10-16T05:50:04;12.30;99.90
16384;DHT22;8301;51.440;6.610;2022-10-16T05:52:31;12.30;99.90
16384;DHT22;8301;51.440;6.610;2022-10-16T05:54:58;12.30;99.90
16384;DHT22;8301;51.440;6.610;2022-10-16T05:57:25;12.20;99.90
16384;DHT22;8301;51.440;6.610;2022-10-16T05:59:52;12.20;99.90
16384;DHT22;8301;51.440;6.610;2022-10-16T06:02:19;12.20;99.90
16384;DHT22;8301;51.440;6.610;2022-10-16T06:04:46;12.20;99.90
16384;DHT22;8301;51.440;6.610;2022-10-16T06:07:12;12.20;99.90
16384;DHT22;8301;51.440;6.610;2022-10-16T06:09:39;12.20;99.90
16384;DHT22;8301;51.440;6.610;2022-10-16T06:12:08;12.20;99.90
16384;DHT22;8301;51.440;6.610;2022-10-16T06:14:35;12.20;99.90
16384;DHT22;8301;51.440;6.610;2022-10-16T06:17:02;12.20;99.90
16384;DHT22;8301;51.440;6.610;2022-10-16T06:19:28;12.20;99.90
16384;DHT22;8301;51.440;6.610;2022-10-16T06:21:55;12.30;99.90
16384;DHT22;8301;51.440;6.610;2022-10-16T06:24:25;12.20;99.90
16384;DHT22;8301;51.440;6.610;2022-10-16T06:26:52;12.30;99.90
16384;DHT22;8301;51.440;6.610;2022-10-16T06:29:20;12.30;99.90
16384;DHT22;8301;51.440;6.610;2022-10-16T06:31:49;12.30;99.90
16384;DHT22;8301;51.440;6.610;2022-10-16T06:34:16;12.30;99.90
16384;DHT22;8301;51.440;6.610;2022-10-16T06:36:42;12.30;99.90
16384;DHT22;8301;51.440;6.610;2022-10-16T06:39:09;12.30;99.90
16384;DHT22;8301;51.440;6.610;2022-10-16T06:44:17;12.40;99.90
16384;DHT22;8301;51.440;6.610;2022-10-16T06:46:44;12.40;99.90
16384;DHT22;8301;51.440;6.610;2022-10-16T06:49:13;12.40;99.90
16384;DHT22;8301;51.440;6.610;2022-10-16T06:51:41;12.40;99.90
16384;DHT22;8301;51.440;6.610;2022-10-16T06:54:08;12.40;99.90
16384;DHT22;8301;51.440;6.610;2022-10-16T06:56:35;12.40;99.90
16384;DHT22;8301;51.440;6.610;2022-10-16T06:59:02;12.40;99.90
16384;DHT22;8301;51.440;6.610;2022-10-16T07:01:30;12.40;99.90
16384;DHT22;8301;51.440;6.610;2022-10-16T07:03:57;12.40;99.90
16384;DHT22;8301;51.440;6.610;2022-10-16T07:06:24;12.40;99.90
16384;DHT22;8301;51.440;6.610;2022-10-16T07:08:51;12.40;99.90
16384;DHT22;8301;51.440;6.610;2022-10-16T07:11:19;12.40;99.90
16384;DHT22;8301;51.440;6.610;2022-10-16T07:13:46;12.40;99.90
16384;DHT22;8301;51.440;6.610;2022-10-16T07:16:14;12.40;99.90
16384;DHT22;8301;51.440;6.610;2022-10-16T07:18:43;12.50;99.90
16384;DHT22;8301;51.440;6.610;2022-10-16T07:21:12;12.50;99.90
16384;DHT22;8301;51.440;6.610;2022-10-16T07:23:40;12.50;99.90
16384;DHT22;8301;51.440;6.610;2022-10-16T07:26:07;12.60;99.90
16384;DHT22;8301;51.440;6.610;2022-10-16T07:28:34;12.70;99.90
16384;DHT22;8301;51.440;6.610;2022-10-16T07:31:01;12.70;99.90
16384;DHT22;8301;51.440;6.610;2022-10-16T07:33:29;12.80;99.90
16384;DHT22;8301;51.440;6.610;2022-10-16T07:35:55;12.90;99.90
16384;DHT22;8301;51.440;6.610;2022-10-16T07:38:22;13.00;99.90
16384;DHT22;8301;51.440;6.610;2022-10-16T07:40:59;13.10;99.90
16384;DHT22;8301;51.440;6.610;2022-10-16T07:43:17;13.10;99.90
16384;DHT22;8301;51.440;6.610;2022-10-16T07:45:47;13.20;99.90
16384;DHT22;8301;51.440;6.610;2022-10-16T07:48:15;13.30;99.90
16384;DHT22;8301;51.440;6.610;2022-10-16T07:50:43;13.20;99.90
16384;DHT22;8301;51.440;6.610;2022-10-16T07:53:11;13.30;99.90
16384;DHT22;8301;51.440;6.610;2022-10-16T07:55:37;13.30;99.90
16384;DHT22;8301;51.440;6.610;2022-10-16T07:58:04;13.40;99.90
16384;DHT22;8301;51.440;6.610;2022-10-16T08:00:32;13.50;99.90
16384;DHT22;8301;51.440;6.610;2022-10-16T08:02:59;13.60;99.90
16384;DHT22;8301;51.440;6.610;2022-10-16T08:05:26;13.70;99.90
16384;DHT22;8301;51.440;6.610;2022-10-16T08:07:55;13.80;99.90
16384;DHT22;8301;51.440;6.610;2022-10-16T08:10:23;13.80;99.90
16384;DHT22;8301;51.440;6.610;2022-10-16T08:12:50;13.90;99.90
16384;DHT22;8301;51.440;6.610;2022-10-16T08:15:17;14.00;99.90
16384;DHT22;8301;51.440;6.610;2022-10-16T08:17:44;14.10;99.90
16384;DHT22;8301;51.440;6.610;2022-10-16T08:20:12;14.20;99.90
16384;DHT22;8301;51.440;6.610;2022-10-16T08:22:38;14.30;99.90
16384;DHT22;8301;51.440;6.610;2022-10-16T08:25:06;14.40;99.90
16384;DHT22;8301;51.440;6.610;2022-10-16T08:27:33;14.50;99.90
16384;DHT22;8301;51.440;6.610;2022-10-16T08:32:33;14.60;99.90
16384;DHT22;8301;51.440;6.610;2022-10-16T08:35:00;15.10;99.90
16384;DHT22;8301;51.440;6.610;2022-10-16T08:40:00;15.80;99.90
16384;DHT22;8301;51.440;6.610;2022-10-16T08:42:44;16.10;99.90
16384;DHT22;8301;51.440;6.610;2022-10-16T08:50:26;17.90;99.90
16384;DHT22;8301;51.440;6.610;2022-10-16T08:52:54;18.20;99.90
16384;DHT22;8301;51.440;6.610;2022-10-16T08:55:33;17.40;99.90
16384;DHT22;8301;51.440;6.610;2022-10-16T08:58:01;17.20;99.90
16384;DHT22;8301;51.440;6.610;2022-10-16T09:00:28;17.40;99.90
16384;DHT22;8301;51.440;6.610;2022-10-16T09:02:59;17.10;99.90
16384;DHT22;8301;51.440;6.610;2022-10-16T09:10:44;17.80;99.90
16384;DHT22;8301;51.440;6.610;2022-10-16T09:13:16;17.80;99.90
16384;DHT22;8301;51.440;6.610;2022-10-16T09:21:01;18.50;99.90
16384;DHT22;8301;51.440;6.610;2022-10-16T09:23:28;19.00;99.90
16384;DHT22;8301;51.440;6.610;2022-10-16T09:25:56;19.30;99.90
16384;DHT22;8301;51.440;6.610;2022-10-16T09:28:24;18.70;99.90
16384;DHT22;8301;51.440;6.610;2022-10-16T09:30:51;17.80;99.90
16384;DHT22;8301;51.440;6.610;2022-10-16T09:33:20;17.80;99.90
16384;DHT22;8301;51.440;6.610;2022-10-16T09:35:53;18.00;99.90
16384;DHT22;8301;51.440;6.610;2022-10-16T09:38:23;18.00;99.90
16384;DHT22;8301;51.440;6.610;2022-10-16T09:40:50;17.60;99.90
16384;DHT22;8301;51.440;6.610;2022-10-16T09:43:21;17.80;99.90
16384;DHT22;8301;51.440;6.610;2022-10-16T09:46:00;17.60;99.90
16384;DHT22;8301;51.440;6.610;2022-10-16T09:48:33;17.50;99.90
16384;DHT22;8301;51.440;6.610;2022-10-16T09:51:03;17.70;99.90
16384;DHT22;8301;51.440;6.610;2022-10-16T09:53:37;17.80;99.90
16384;DHT22;8301;51.440;6.610;2022-10-16T09:55:56;18.00;99.90
16384;DHT22;8301;51.440;6.610;2022-10-16T09:58:23;18.00;99.90
16384;DHT22;8301;51.440;6.610;2022-10-16T10:00:51;18.00;99.90
16384;DHT22;8301;51.440;6.610;2022-10-16T10:03:34;17.70;99.90
16384;DHT22;8301;51.440;6.610;2022-10-16T10:08:58;17.90;99.90
16384;DHT22;8301;51.440;6.610;2022-10-16T10:11:40;18.10;99.90
16384;DHT22;8301;51.440;6.610;2022-10-16T10:14:17;18.10;99.90
16384;DHT22;8301;51.440;6.610;2022-10-16T10:16:45;17.90;99.90
16384;DHT22;8301;51.440;6.610;2022-10-16T10:19:17;17.90;99.90
16384;DHT22;8301;51.440;6.610;2022-10-16T10:21:40;17.50;99.90
16384;DHT22;8301;51.440;6.610;2022-10-16T10:24:16;17.60;99.90
16384;DHT22;8301;51.440;6.610;2022-10-16T10:26:47;17.90;99.90
16384;DHT22;8301;51.440;6.610;2022-10-16T10:29:13;18.10;99.90
16384;DHT22;8301;51.440;6.610;2022-10-16T10:36:39;18.30;99.90
16384;DHT22;8301;51.440;6.610;2022-10-16T10:39:13;18.40;99.90
16384;DHT22;8301;51.440;6.610;2022-10-16T10:57:34;18.50;99.90
16384;DHT22;8301;51.440;6.610;2022-10-16T11:00:11;18.30;99.90
16384;DHT22;8301;51.440;6.610;2022-10-16T11:02:48;18.30;99.90
16384;DHT22;8301;51.440;6.610;2022-10-16T11:05:27;18.00;99.90
16384;DHT22;8301;51.440;6.610;2022-10-16T11:08:00;18.00;99.90
16384;DHT22;8301;51.440;6.610;2022-10-16T11:10:33;18.30;99.90
16384;DHT22;8301;51.440;6.610;2022-10-16T11:15:36;18.60;99.90
16384;DHT22;8301;51.440;6.610;2022-10-16T11:20:28;18.70;99.90
16384;DHT22;8301;51.440;6.610;2022-10-16T11:23:42;18.40;99.90
16384;DHT22;8301;51.440;6.610;2022-10-16T11:25:31;18.30;99.90
16384;DHT22;8301;51.440;6.610;2022-10-16T11:30:33;17.80;99.90
16384;DHT22;8301;51.440;6.610;2022-10-16T11:40:49;17.90;99.90
16384;DHT22;8301;51.440;6.610;2022-10-16T11:43:25;18.30;99.90
16384;DHT22;8301;51.440;6.610;2022-10-16T11:45:54;18.40;99.90
16384;DHT22;8301;51.440;6.610;2022-10-16T11:48:26;18.40;99.90
16384;DHT22;8301;51.440;6.610;2022-10-16T11:50:53;18.60;99.90
16384;DHT22;8301;51.440;6.610;2022-10-16T11:53:23;18.90;99.90
16384;DHT22;8301;51.440;6.610;2022-10-16T11:55:50;19.20;99.90
16384;DHT22;8301;51.440;6.610;2022-10-16T12:01:12;19.50;99.90
16384;DHT22;8301;51.440;6.610;2022-10-16T12:08:44;19.30;99.90
16384;DHT22;8301;51.440;6.610;2022-10-16T12:14:39;19.70;99.90
16384;DHT22;8301;51.440;6.610;2022-10-16T12:16:22;19.80;99.90
16384;DHT22;8301;51.440;6.610;2022-10-16T12:18:49;19.80;99.90
16384;DHT22;8301;51.440;6.610;2022-10-16T12:21:19;19.80;99.90
16384;DHT22;8301;51.440;6.610;2022-10-16T12:23:51;19.60;99.90
16384;DHT22;8301;51.440;6.610;2022-10-16T12:28:54;19.00;99.90
16384;DHT22;8301;51.440;6.610;2022-10-16T12:31:21;19.00;99.90
16384;DHT22;8301;51.440;6.610;2022-10-16T12:34:00;18.90;99.90
16384;DHT22;8301;51.440;6.610;2022-10-16T12:36:29;18.70;99.90
16384;DHT22;8301;51.440;6.610;2022-10-16T12:38:56;18.60;99.90
16384;DHT22;8301;51.440;6.610;2022-10-16T12:41:34;18.70;99.90
16384;DHT22;8301;51.440;6.610;2022-10-16T12:44:03;18.70;99.90
16384;DHT22;8301;51.440;6.610;2022-10-16T12:51:44;18.90;99.90
16384;DHT22;8301;51.440;6.610;2022-10-16T12:54:19;19.10;99.90
16384;DHT22;8301;51.440;6.610;2022-10-16T12:56:50;19.00;99.90
16384;DHT22;8301;51.440;6.610;2022-10-16T12:59:21;19.20;99.90
16384;DHT22;8301;51.440;6.610;2022-10-16T13:01:52;19.30;99.90
16384;DHT22;8301;51.440;6.610;2022-10-16T13:04:18;19.20;99.90
16384;DHT22;8301;51.440;6.610;2022-10-16T13:06:54;19.00;99.90
16384;DHT22;8301;51.440;6.610;2022-10-16T13:14:43;19.20;99.90
16384;DHT22;8301;51.440;6.610;2022-10-16T13:20:06;19.60;99.90
16384;DHT22;8301;51.440;6.610;2022-10-16T13:28:01;19.20;99.90
16384;DHT22;8301;51.440;6.610;2022-10-16T13:30:34;18.90;99.90
16384;DHT22;8301;51.440;6.610;2022-10-16T13:33:04;18.80;99.90
16384;DHT22;8301;51.440;6.610;2022-10-16T13:35:33;18.70;99.90
16384;DHT22;8301;51.440;6.610;2022-10-16T13:38:14;18.60;99.90
16384;DHT22;8301;51.440;6.610;2022-10-16T13:40:51;18.60;99.90
16384;DHT22;8301;51.440;6.610;2022-10-16T13:43:19;18.50;99.90
16384;DHT22;8301;51.440;6.610;2022-10-16T13:45:53;18.70;99.90
16384;DHT22;8301;51.440;6.610;2022-10-16T13:48:20;18.70;99.90
16384;DHT22;8301;51.440;6.610;2022-10-16T13:50:57;18.60;99.90
16384;DHT22;8301;51.440;6.610;2022-10-16T13:53:16;18.70;99.90
16384;DHT22;8301;51.440;6.610;2022-10-16T13:55:42;18.70;99.90
16384;DHT22;8301;51.440;6.610;2022-10-16T13:58:13;18.90;99.90
16384;DHT22;8301;51.440;6.610;2022-10-16T14:00:42;18.70;99.90
16384;DHT22;8301;51.440;6.610;2022-10-16T14:03:13;18.60;99.90
16384;DHT22;8301;51.440;6.610;2022-10-16T14:05:40;18.60;99.90
16384;DHT22;8301;51.440;6.610;2022-10-16T14:08:05;18.60;99.90
16384;DHT22;8301;51.440;6.610;2022-10-16T14:10:32;18.60;99.90
16384;DHT22;8301;51.440;6.610;2022-10-16T14:13:04;18.70;99.90
16384;DHT22;8301;51.440;6.610;2022-10-16T14:15:33;18.50;99.90
16384;DHT22;8301;51.440;6.610;2022-10-16T14:18:01;18.60;99.90
16384;DHT22;8301;51.440;6.610;2022-10-16T14:20:33;18.60;99.90
16384;DHT22;8301;51.440;6.610;2022-10-16T14:23:01;18.50;99.90
16384;DHT22;8301;51.440;6.610;2022-10-16T14:25:29;18.50;99.90
16384;DHT22;8301;51.440;6.610;2022-10-16T14:28:19;18.40;99.90
16384;DHT22;8301;51.440;6.610;2022-10-16T14:30:26;18.40;99.90
16384;DHT22;8301;51.440;6.610;2022-10-16T14:33:00;18.50;99.90
16384;DHT22;8301;51.440;6.610;2022-10-16T14:35:29;18.50;99.90
16384;DHT22;8301;51.440;6.610;2022-10-16T14:37:56;18.50;99.90
16384;DHT22;8301;51.440;6.610;2022-10-16T14:40:29;18.40;99.90
16384;DHT22;8301;51.440;6.610;2022-10-16T14:42:52;18.30;99.90
16384;DHT22;8301;51.440;6.610;2022-10-16T14:45:26;18.20;99.90
16384;DHT22;8301;51.440;6.610;2022-10-16T14:47:49;18.30;99.90
16384;DHT22;8301;51.440;6.610;2022-10-16T14:50:16;18.30;99.90
16384;DHT22;8301;51.440;6.610;2022-10-16T14:52:44;18.30;99.90
16384;DHT22;8301;51.440;6.610;2022-10-16T14:55:11;18.30;99.90
16384;DHT22;8301;51.440;6.610;2022-10-16T14:57:38;18.20;99.90
16384;DHT22;8301;51.440;6.610;2022-10-16T15:00:08;18.10;99.90
16384;DHT22;8301;51.440;6.610;2022-10-16T15:02:34;18.10;99.90
16384;DHT22;8301;51.440;6.610;2022-10-16T15:05:10;17.90;99.90
16384;DHT22;8301;51.440;6.610;2022-10-16T15:07:30;17.90;99.90
16384;DHT22;8301;51.440;6.610;2022-10-16T15:09:58;17.80;99.90
16384;DHT22;8301;51.440;6.610;2022-10-16T15:12:25;17.70;99.90
16384;DHT22;8301;51.440;6.610;2022-10-16T15:14:52;17.60;99.90
16384;DHT22;8301;51.440;6.610;2022-10-16T15:17:19;17.50;99.90
16384;DHT22;8301;51.440;6.610;2022-10-16T15:19:45;17.40;99.90
16384;DHT22;8301;51.440;6.610;2022-10-16T15:22:12;17.40;99.90
16384;DHT22;8301;51.440;6.610;2022-10-16T15:24:39;17.30;99.90
16384;DHT22;8301;51.440;6.610;2022-10-16T15:27:06;17.20;99.90
16384;DHT22;8301;51.440;6.610;2022-10-16T15:29:33;17.20;99.90
16384;DHT22;8301;51.440;6.610;2022-10-16T15:31:59;17.20;99.90
16384;DHT22;8301;51.440;6.610;2022-10-16T15:34:26;17.10;99.90
16384;DHT22;8301;51.440;6.610;2022-10-16T15:36:53;17.10;99.90
16384;DHT22;8301;51.440;6.610;2022-10-16T15:39:21;17.00;99.90
16384;DHT22;8301;51.440;6.610;2022-10-16T15:41:47;17.00;99.90
16384;DHT22;8301;51.440;6.610;2022-10-16T15:44:19;17.00;99.90
16384;DHT22;8301;51.440;6.610;2022-10-16T15:46:46;17.00;99.90
16384;DHT22;8301;51.440;6.610;2022-10-16T15:49:15;17.00;99.90
16384;DHT22;8301;51.440;6.610;2022-10-16T15:51:42;17.00;99.90
16384;DHT22;8301;51.440;6.610;2022-10-16T15:54:09;16.90;99.90
16384;DHT22;8301;51.440;6.610;2022-10-16T15:56:36;16.80;99.90
16384;DHT22;8301;51.440;6.610;2022-10-16T15:59:03;16.80;99.90
16384;DHT22;8301;51.440;6.610;2022-10-16T16:01:37;16.70;99.90
16384;DHT22;8301;51.440;6.610;2022-10-16T16:04:01;16.70;99.90
16384;DHT22;8301;51.440;6.610;2022-10-16T16:06:27;16.70;99.90
16384;DHT22;8301;51.440;6.610;2022-10-16T16:08:55;16.60;99.90
16384;DHT22;8301;51.440;6.610;2022-10-16T16:11:22;16.50;99.90
16384;DHT22;8301;51.440;6.610;2022-10-16T16:13:49;16.50;99.90
16384;DHT22;8301;51.440;6.610;2022-10-16T16:16:16;16.50;99.90
16384;DHT22;8301;51.440;6.610;2022-10-16T16:21:17;16.40;99.90
16384;DHT22;8301;51.440;6.610;2022-10-16T16:23:44;16.30;99.90
16384;DHT22;8301;51.440;6.610;2022-10-16T16:26:12;16.20;99.90
16384;DHT22;8301;51.440;6.610;2022-10-16T16:28:39;16.20;99.90
16384;DHT22;8301;51.440;6.610;2022-10-16T16:31:07;16.10;99.90
16384;DHT22;8301;51.440;6.610;2022-10-16T16:33:34;16.10;99.90
16384;DHT22;8301;51.440;6.610;2022-10-16T16:36:02;16.00;99.90
16384;DHT22;8301;51.440;6.610;2022-10-16T16:38:32;16.00;99.90
16384;DHT22;8301;51.440;6.610;2022-10-16T16:41:10;15.90;99.90
16384;DHT22;8301;51.440;6.610;2022-10-16T16:43:28;15.80;99.90
16384;DHT22;8301;51.440;6.610;2022-10-16T16:45:56;15.70;99.90
16384;DHT22;8301;51.440;6.610;2022-10-16T16:48:25;15.70;99.90
16384;DHT22;8301;51.440;6.610;2022-10-16T16:50:52;15.70;99.90
16384;DHT22;8301;51.440;6.610;2022-10-16T16:53:18;15.60;99.90
16384;DHT22;8301;51.440;6.610;2022-10-16T16:55:45;15.50;99.90
16384;DHT22;8301;51.440;6.610;2022-10-16T16:58:14;15.50;99.90
16384;DHT22;8301;51.440;6.610;2022-10-16T17:00:49;15.40;99.90
16384;DHT22;8301;51.440;6.610;2022-10-16T17:03:16;15.30;99.90
16384;DHT22;8301;51.440;6.610;2022-10-16T17:05:42;15.30;99.90
16384;DHT22;8301;51.440;6.610;2022-10-16T17:08:09;15.30;99.90
16384;DHT22;8301;51.440;6.610;2022-10-16T17:10:41;15.30;99.90
16384;DHT22;8301;51.440;6.610;2022-10-16T17:13:04;15.20;99.90
16384;DHT22;8301;51.440;6.610;2022-10-16T17:15:32;15.20;99.90
16384;DHT22;8301;51.440;6.610;2022-10-16T17:17:59;15.20;99.90
16384;DHT22;8301;51.440;6.610;2022-10-16T17:20:25;15.10;99.90
16384;DHT22;8301;51.440;6.610;2022-10-16T17:22:52;15.10;99.90
16384;DHT22;8301;51.440;6.610;2022-10-16T17:25:19;15.10;99.90
16384;DHT22;8301;51.440;6.610;2022-10-16T17:27:46;15.10;99.90
16384;DHT22;8301;51.440;6.610;2022-10-16T17:30:13;15.00;99.90
16384;DHT22;8301;51.440;6.610;2022-10-16T17:32:40;15.00;99.90
16384;DHT22;8301;51.440;6.610;2022-10-16T17:35:06;15.00;99.90
16384;DHT22;8301;51.440;6.610;2022-10-16T17:37:33;15.00;99.90
16384;DHT22;8301;51.440;6.610;2022-10-16T17:40:00;15.00;99.90
16384;DHT22;8301;51.440;6.610;2022-10-16T17:42:27;15.00;99.90